createdAt,value
2016-05-26T00:00:26.809Z,85.51
2016-05-26T00:01:26.779Z,85.51
2016-05-26T00:02:26.860Z,85.89
2016-05-26T00:03:27.097Z,85.89
2016-05-26T00:04:26.882Z,86.08
2016-05-26T00:05:26.931Z,85.61
2016-05-26T00:06:26.965Z,86.23
2016-05-26T00:07:26.998Z,86.14
2016-05-26T00:08:27.048Z,86.18
2016-05-26T00:09:26.958Z,86.04
2016-05-26T00:10:27.147Z,86.52
2016-05-26T00:11:27.009Z,86.52
2016-05-26T00:12:27.215Z,86.04
2016-05-26T00:13:27.280Z,86.9
2016-05-26T00:14:27.284Z,86.71
2016-05-26T00:15:27.317Z,87
2016-05-26T00:16:27.367Z,86.71
2016-05-26T00:17:27.244Z,87
2016-05-26T00:18:27.435Z,86.8
2016-05-26T00:19:27.485Z,87.57
2016-05-26T00:20:27.550Z,87.19
2016-05-26T00:21:27.568Z,87.19
2016-05-26T00:22:27.602Z,86.8
2016-05-26T00:23:27.636Z,87.19
2016-05-26T00:24:27.685Z,87.09
2016-05-26T00:25:27.719Z,87
2016-05-26T00:26:27.768Z,87.09
2016-05-26T00:27:27.818Z,87.19
2016-05-26T00:28:27.680Z,87.19
2016-05-26T00:29:27.886Z,87.57
2016-05-26T00:30:27.920Z,87
2016-05-26T00:31:27.970Z,87.19
2016-05-26T00:32:28.800Z,87.38
2016-05-26T00:33:28.037Z,87.57
2016-05-26T00:34:28.071Z,87.34
2016-05-26T00:35:28.137Z,87.38
2016-05-26T00:36:28.156Z,87.57
2016-05-26T00:37:28.190Z,87.86
2016-05-26T00:38:28.239Z,87.53
2016-05-26T00:39:28.304Z,87.66
2016-05-26T00:40:28.306Z,87.57
2016-05-26T00:41:28.356Z,87.95
2016-05-26T00:42:28.390Z,88.43
2016-05-26T00:43:28.455Z,87.53
2016-05-26T00:44:28.473Z,87.72
2016-05-26T00:45:28.350Z,87.95
2016-05-26T00:46:28.541Z,87.53
2016-05-26T00:47:28.466Z,87.53
2016-05-26T00:48:28.625Z,88.39
2016-05-26T00:49:28.674Z,88.29
2016-05-26T00:50:28.724Z,88.53
2016-05-26T00:51:28.742Z,88.43
2016-05-26T00:52:28.791Z,88.01
2016-05-26T00:53:28.826Z,88.05
2016-05-26T00:54:28.907Z,88.2
2016-05-26T00:55:28.893Z,87.91
2016-05-26T00:56:28.943Z,88.1
2016-05-26T00:57:28.821Z,87.91
2016-05-26T00:58:29.011Z,88.48
2016-05-26T00:59:29.060Z,88.39
2016-05-26T01:00:29.095Z,88.1
2016-05-26T01:01:29.176Z,88.29
2016-05-26T01:02:29.178Z,88.2
2016-05-26T01:03:29.212Z,88.29
2016-05-26T01:04:29.262Z,87.91
2016-05-26T01:05:29.296Z,88.39
2016-05-26T01:06:29.345Z,88.39
2016-05-26T01:07:29.379Z,88.77
2016-05-26T01:08:29.412Z,88.2
2016-05-26T01:09:29.494Z,88.1
2016-05-26T01:10:29.497Z,87.82
2016-05-26T01:11:29.530Z,88.39
2016-05-26T01:12:29.612Z,88.24
2016-05-26T01:13:29.614Z,88.68
2016-05-26T01:14:29.647Z,88.15
2016-05-26T01:15:29.713Z,88.01
2016-05-26T01:16:29.731Z,88.53
2016-05-26T01:17:29.781Z,88.24
2016-05-26T01:18:29.814Z,88.15
2016-05-26T01:19:29.849Z,88.24
2016-05-26T01:20:29.742Z,88.34
2016-05-26T01:21:29.933Z,88.2
2016-05-26T01:22:29.966Z,88.05
2016-05-26T01:23:30.031Z,87.95
2016-05-26T01:24:30.050Z,87.86
2016-05-26T01:25:30.083Z,88.34
2016-05-26T01:26:30.133Z,88.05
2016-05-26T01:27:30.026Z,87.86
2016-05-26T01:28:30.201Z,87.95
2016-05-26T01:29:30.079Z,88.53
2016-05-26T01:30:30.284Z,88.53
2016-05-26T01:31:30.319Z,87.66
2016-05-26T01:32:30.727Z,88.24
2016-05-26T01:33:30.402Z,88.72
2016-05-26T01:34:30.467Z,87.86
2016-05-26T01:35:30.485Z,88.62
2016-05-26T01:36:30.535Z,88.43
2016-05-26T01:37:30.554Z,87.86
2016-05-26T01:38:30.619Z,87.95
2016-05-26T01:39:30.637Z,87.19
2016-05-26T01:40:30.671Z,87.38
2016-05-26T01:41:30.720Z,87.38
2016-05-26T01:42:30.754Z,87.66
2016-05-26T01:43:30.804Z,88.05
2016-05-26T01:44:30.838Z,88.05
2016-05-26T01:45:30.919Z,88.15
2016-05-26T01:46:30.905Z,88.24
2016-05-26T01:47:31.767Z,87.95
2016-05-26T01:48:30.989Z,87.66
2016-05-26T01:49:31.054Z,88.43
2016-05-26T01:50:31.088Z,87.86
2016-05-26T01:51:31.107Z,88.62
2016-05-26T01:52:31.156Z,88.05
2016-05-26T01:53:31.050Z,87.86
2016-05-26T01:54:31.240Z,87.76
2016-05-26T01:55:31.274Z,87.82
2016-05-26T01:56:31.339Z,87.66
2016-05-26T01:57:31.358Z,87.95
2016-05-26T01:58:31.391Z,88.05
2016-05-26T01:59:31.441Z,87.95
2016-05-26T02:00:31.318Z,88.24
2016-05-26T02:01:31.509Z,88.43
2016-05-26T02:02:31.730Z,88.15
2016-05-26T02:03:31.607Z,87.76
2016-05-26T02:04:31.626Z,88.05
2016-05-26T02:05:31.659Z,87.57
2016-05-26T02:06:31.710Z,87.66
2016-05-26T02:07:31.743Z,88.05
2016-05-26T02:08:31.793Z,88.05
2016-05-26T02:09:31.826Z,88.15
2016-05-26T02:10:31.861Z,88.05
2016-05-26T02:11:31.926Z,87.86
2016-05-26T02:12:31.944Z,87.86
2016-05-26T02:13:31.979Z,88.05
2016-05-26T02:14:32.044Z,88.43
2016-05-26T02:15:32.061Z,87.76
2016-05-26T02:16:32.095Z,87.66
2016-05-26T02:17:32.708Z,88.43
2016-05-26T02:18:32.211Z,87.86
2016-05-26T02:19:32.058Z,87.86
2016-05-26T02:20:32.278Z,88.24
2016-05-26T02:21:32.297Z,88.43
2016-05-26T02:22:32.347Z,88.43
2016-05-26T02:23:32.380Z,87.86
2016-05-26T02:24:32.414Z,88.15
2016-05-26T02:25:32.479Z,87.95
2016-05-26T02:26:32.357Z,88.24
2016-05-26T02:27:32.547Z,88.34
2016-05-26T02:28:32.581Z,87.95
2016-05-26T02:29:32.615Z,87.86
2016-05-26T02:30:32.649Z,87.48
2016-05-26T02:31:32.698Z,87.76
2016-05-26T02:32:32.810Z,88.05
2016-05-26T02:33:32.782Z,87.57
2016-05-26T02:34:32.816Z,87.95
2016-05-26T02:35:32.851Z,88.34
2016-05-26T02:36:32.899Z,87.57
2016-05-26T02:37:32.934Z,87.76
2016-05-26T02:38:32.968Z,88.15
2016-05-26T02:39:33.048Z,87.76
2016-05-26T02:40:33.051Z,87.95
2016-05-26T02:41:33.101Z,87.57
2016-05-26T02:42:33.134Z,87.76
2016-05-26T02:43:33.168Z,87.66
2016-05-26T02:44:33.203Z,87.66
2016-05-26T02:45:33.314Z,87.76
2016-05-26T02:46:33.286Z,87.76
2016-05-26T02:47:33.350Z,87.66
2016-05-26T02:48:33.431Z,87.57
2016-05-26T02:49:33.419Z,87.57
2016-05-26T02:50:33.358Z,87.66
2016-05-26T02:51:33.502Z,87.38
2016-05-26T02:52:33.583Z,87.76
2016-05-26T02:53:33.570Z,87.29
2016-05-26T02:54:33.667Z,87.76
2016-05-26T02:55:33.717Z,87.76
2016-05-26T02:56:33.687Z,87.57
2016-05-26T02:57:33.597Z,87.38
2016-05-26T02:58:33.616Z,87.57
2016-05-26T02:59:33.805Z,87.38
2016-05-26T03:00:33.839Z,87.09
2016-05-26T03:01:33.904Z,87
2016-05-26T03:02:33.938Z,87.19
2016-05-26T03:03:33.957Z,87.38
2016-05-26T03:04:34.006Z,87
2016-05-26T03:05:33.884Z,87.48
2016-05-26T03:06:34.090Z,87.38
2016-05-26T03:07:34.123Z,87.09
2016-05-26T03:08:34.174Z,87.38
2016-05-26T03:09:34.192Z,87.38
2016-05-26T03:10:34.084Z,87.19
2016-05-26T03:11:34.275Z,87.19
2016-05-26T03:12:34.168Z,87.09
2016-05-26T03:13:34.374Z,87.48
2016-05-26T03:14:34.409Z,87
2016-05-26T03:15:34.442Z,87.19
2016-05-26T03:16:34.351Z,87.29
2016-05-26T03:17:34.526Z,86.8
2016-05-26T03:18:34.559Z,86.8
2016-05-26T03:19:34.609Z,86.8
2016-05-26T03:20:34.642Z,86.61
2016-05-26T03:21:34.692Z,86.8
2016-05-26T03:22:34.602Z,87.29
2016-05-26T03:23:34.760Z,86.8
2016-05-26T03:24:34.810Z,86.8
2016-05-26T03:25:34.703Z,86.8
2016-05-26T03:26:34.908Z,87.09
2016-05-26T03:27:34.927Z,86.52
2016-05-26T03:28:34.961Z,87.29
2016-05-26T03:29:34.996Z,87
2016-05-26T03:30:35.060Z,86.8
2016-05-26T03:31:35.094Z,86.43
2016-05-26T03:32:35.129Z,86.71
2016-05-26T03:33:35.178Z,86.8
2016-05-26T03:34:35.196Z,86.8
2016-05-26T03:35:35.229Z,86.8
2016-05-26T03:36:35.124Z,87.19
2016-05-26T03:37:35.173Z,86.8
2016-05-26T03:38:35.348Z,86.61
2016-05-26T03:39:35.397Z,86.8
2016-05-26T03:40:35.446Z,86.8
2016-05-26T03:41:35.481Z,86.8
2016-05-26T03:42:35.358Z,86.71
2016-05-26T03:43:35.548Z,86.52
2016-05-26T03:44:35.598Z,86.8
2016-05-26T03:45:35.491Z,86.8
2016-05-26T03:46:35.681Z,86.76
2016-05-26T03:47:35.715Z,86.94
2016-05-26T03:48:35.750Z,86.76
2016-05-26T03:49:35.800Z,86.61
2016-05-26T03:50:35.833Z,87.04
2016-05-26T03:51:35.898Z,86.43
2016-05-26T03:52:35.916Z,87
2016-05-26T03:53:35.966Z,86.61
2016-05-26T03:54:36.000Z,86.43
2016-05-26T03:55:36.081Z,86.76
2016-05-26T03:56:36.083Z,86.85
2016-05-26T03:57:36.133Z,86.94
2016-05-26T03:58:36.151Z,86.66
2016-05-26T03:59:36.201Z,86.47
2016-05-26T04:00:36.235Z,86.76
2016-05-26T04:01:36.269Z,86.47
2016-05-26T04:02:36.959Z,86.37
2016-05-26T04:03:36.352Z,86.08
2016-05-26T04:04:36.386Z,86.57
2016-05-26T04:05:36.436Z,86.28
2016-05-26T04:06:36.345Z,86.08
2016-05-26T04:07:36.379Z,85.8
2016-05-26T04:08:36.554Z,86.28
2016-05-26T04:09:36.634Z,86.57
2016-05-26T04:10:36.637Z,85.71
2016-05-26T04:11:36.670Z,85.8
2016-05-26T04:12:36.736Z,85.89
2016-05-26T04:13:36.785Z,85.71
2016-05-26T04:14:36.804Z,85.61
2016-05-26T04:15:36.837Z,85.89
2016-05-26T04:16:36.918Z,85.99
2016-05-26T04:17:37.561Z,86.08
2016-05-26T04:18:36.956Z,85.71
2016-05-26T04:19:36.990Z,85.99
2016-05-26T04:20:37.053Z,85.99
2016-05-26T04:21:37.072Z,85.89
2016-05-26T04:22:37.106Z,85.61
2016-05-26T04:23:37.156Z,85.51
2016-05-26T04:24:37.190Z,85.61
2016-05-26T04:25:37.239Z,85.32
2016-05-26T04:26:37.258Z,85.75
2016-05-26T04:27:37.339Z,85.75
2016-05-26T04:28:37.357Z,85.27
2016-05-26T04:29:37.391Z,85.36
2016-05-26T04:30:37.456Z,84.98
2016-05-26T04:31:37.474Z,85.27
2016-05-26T04:32:37.696Z,85.36
2016-05-26T04:33:37.558Z,84.98
2016-05-26T04:34:37.638Z,84.59
2016-05-26T04:35:37.641Z,84.69
2016-05-26T04:36:37.690Z,84.88
2016-05-26T04:37:37.710Z,84.88
2016-05-26T04:38:37.807Z,84.83
2016-05-26T04:39:37.793Z,84.69
2016-05-26T04:40:37.687Z,84.69
2016-05-26T04:41:37.876Z,84.35
2016-05-26T04:42:37.926Z,84.16
2016-05-26T04:43:37.960Z,84.26
2016-05-26T04:44:37.993Z,84.16
2016-05-26T04:45:38.075Z,84.06
2016-05-26T04:46:39.656Z,83.68
2016-05-26T04:47:38.126Z,83.78
2016-05-26T04:48:38.176Z,83.78
2016-05-26T04:49:38.211Z,83.68
2016-05-26T04:50:38.244Z,83.97
2016-05-26T04:51:38.294Z,84.26
2016-05-26T04:52:38.328Z,83.39
2016-05-26T04:53:38.425Z,83.63
2016-05-26T04:54:38.428Z,82.92
2016-05-26T04:55:38.444Z,83.2
2016-05-26T04:56:38.526Z,82.92
2016-05-26T04:57:38.529Z,83.3
2016-05-26T04:58:38.563Z,83.49
2016-05-26T04:59:38.613Z,83.25
2016-05-26T05:00:38.677Z,83.2
2016-05-26T05:01:38.696Z,82.82
2016-05-26T05:02:38.746Z,82.57
2016-05-26T05:03:38.779Z,82.76
2016-05-26T05:04:38.844Z,82.57
2016-05-26T05:05:38.862Z,82.76
2016-05-26T05:06:38.896Z,82.67
2016-05-26T05:07:38.791Z,82.76
2016-05-26T05:08:38.980Z,82.38
2016-05-26T05:09:39.014Z,81.71
2016-05-26T05:10:39.063Z,81.23
2016-05-26T05:11:39.113Z,81.52
2016-05-26T05:12:39.148Z,81.95
2016-05-26T05:13:39.026Z,81.75
2016-05-26T05:14:40.512Z,81.46
2016-05-26T05:15:39.687Z,81.37
2016-05-26T05:16:39.409Z,81.08
2016-05-26T05:17:39.707Z,81.27
2016-05-26T05:18:39.959Z,81.27
2016-05-26T05:19:39.478Z,80.89
2016-05-26T05:20:39.481Z,80.6
2016-05-26T05:21:39.515Z,80.6
2016-05-26T05:22:39.611Z,80.79
2016-05-26T05:23:39.615Z,80.51
2016-05-26T05:24:39.648Z,80.6
2016-05-26T05:25:39.682Z,79.93
2016-05-26T05:26:39.575Z,80.22
2016-05-26T05:27:40.766Z,80.03
2016-05-26T05:28:39.925Z,80.12
2016-05-26T05:29:40.350Z,80.12
2016-05-26T05:30:39.899Z,79.36
2016-05-26T05:31:39.933Z,79.26
2016-05-26T05:32:40.014Z,79.74
2016-05-26T05:33:40.329Z,79.74
2016-05-26T05:34:40.097Z,79.36
2016-05-26T05:35:40.100Z,79.07
2016-05-26T05:36:40.321Z,78.88
2016-05-26T05:37:40.386Z,79.55
2016-05-26T05:38:40.217Z,79.36
2016-05-26T05:39:40.251Z,79.3
2016-05-26T05:40:40.301Z,78.63
2016-05-26T05:41:40.366Z,78.4
2016-05-26T05:42:40.384Z,78.02
2016-05-26T05:43:40.668Z,78.3
2016-05-26T05:44:40.467Z,77.82
2016-05-26T05:45:40.564Z,78.2
2016-05-26T05:46:40.582Z,78.05
2016-05-26T05:47:41.132Z,78.34
2016-05-26T05:48:41.401Z,77.86
2016-05-26T05:49:40.715Z,77.76
2016-05-26T05:50:40.984Z,77.38
2016-05-26T05:51:40.956Z,76.71
2016-05-26T05:52:41.051Z,76.9
2016-05-26T05:53:40.866Z,76.32
2016-05-26T05:54:40.869Z,76.71
2016-05-26T05:55:40.919Z,76.52
2016-05-26T05:56:41.000Z,76.32
2016-05-26T05:57:41.002Z,76.32
2016-05-26T05:58:40.880Z,76.32
2016-05-26T05:59:41.149Z,76.17
2016-05-26T06:00:41.119Z,75.7
2016-05-26T06:01:41.170Z,74.93
2016-05-26T06:02:41.219Z,75.02
2016-05-26T06:03:41.269Z,75.12
2016-05-26T06:04:41.334Z,74.44
2016-05-26T06:05:41.336Z,74.44
2016-05-26T06:06:41.371Z,74.06
2016-05-26T06:07:41.435Z,73.3
2016-05-26T06:08:41.454Z,72.53
2016-05-26T06:09:43.004Z,72.43
2016-05-26T06:10:42.147Z,72.33
2016-05-26T06:11:41.571Z,72.33
2016-05-26T06:12:41.621Z,72.43
2016-05-26T06:13:41.687Z,73.1
2016-05-26T06:14:41.985Z,73.26
2016-05-26T06:15:41.848Z,73.16
2016-05-26T06:16:41.803Z,73.3
2016-05-26T06:17:41.837Z,73.16
2016-05-26T06:18:41.857Z,73.65
2016-05-26T06:19:41.906Z,73.65
2016-05-26T06:20:42.331Z,73.68
2016-05-26T06:21:42.020Z,73.3
2016-05-26T06:22:42.148Z,72.88
2016-05-26T06:23:42.010Z,73.68
2016-05-26T06:24:42.122Z,73.3
2016-05-26T06:25:42.375Z,73.2
2016-05-26T06:26:42.237Z,73.87
2016-05-26T06:27:42.239Z,73.77
2016-05-26T06:28:42.273Z,72.72
2016-05-26T06:29:42.323Z,72.63
2016-05-26T06:30:43.482Z,72.63
2016-05-26T06:31:42.453Z,72.72
2016-05-26T06:32:43.050Z,73.2
2016-05-26T06:33:43.880Z,73.3
2016-05-26T06:34:43.368Z,72.81
2016-05-26T06:35:43.323Z,73.49
2016-05-26T06:36:43.341Z,73.04
2016-05-26T06:37:43.486Z,73.24
2016-05-26T06:38:43.379Z,73.33
2016-05-26T06:39:43.460Z,73.14
2016-05-26T06:40:43.509Z,73.33
2016-05-26T06:41:43.683Z,73.24
2016-05-26T06:42:43.968Z,71.89
2016-05-26T06:43:43.674Z,71.55
2016-05-26T06:44:43.691Z,71.64
2016-05-26T06:45:43.554Z,71.16
2016-05-26T06:46:43.713Z,71.16
2016-05-26T06:47:43.137Z,70.68
2016-05-26T06:48:43.109Z,71.55
2016-05-26T06:49:43.033Z,71.35
2016-05-26T06:50:43.223Z,71.25
2016-05-26T06:51:43.335Z,71.55
2016-05-26T06:52:43.463Z,69.37
2016-05-26T06:53:43.356Z,68.7
2016-05-26T06:54:43.358Z,68.89
2016-05-26T06:55:43.409Z,68.76
2016-05-26T06:56:45.020Z,68.47
2016-05-26T06:57:44.492Z,69.18
2016-05-26T06:58:44.698Z,68.57
2016-05-26T06:59:44.325Z,69.34
2016-05-26T07:00:45.297Z,69.24
2016-05-26T07:01:44.956Z,69.27
2016-05-26T07:02:48.194Z,69.18
2016-05-26T07:03:44.586Z,68.31
2016-05-26T07:04:44.370Z,68.89
2016-05-26T07:05:44.608Z,68.7
2016-05-26T07:06:44.922Z,69.18
2016-05-26T07:07:44.832Z,68.7
2016-05-26T07:08:44.724Z,68.31
2016-05-26T07:09:44.587Z,68.98
2016-05-26T07:10:44.340Z,68.79
2016-05-26T07:11:44.248Z,68.6
2016-05-26T07:12:44.157Z,68.31
2016-05-26T07:13:44.504Z,68.51
2016-05-26T07:14:44.163Z,68.51
2016-05-26T07:15:45.134Z,68.7
2016-05-26T07:16:44.293Z,69.12
2016-05-26T07:17:44.654Z,68.44
2016-05-26T07:18:48.377Z,68.15
2016-05-26T07:19:44.490Z,67.96
2016-05-26T07:20:44.632Z,68.54
2016-05-26T07:21:44.510Z,68.83
2016-05-26T07:22:44.590Z,68.25
2016-05-26T07:23:45.468Z,67.1
2016-05-26T07:24:44.784Z,67.1
2016-05-26T07:25:45.067Z,66.77
2016-05-26T07:26:44.726Z,66.3
2016-05-26T07:27:44.761Z,67.07
2016-05-26T07:28:44.856Z,67.25
2016-05-26T07:29:44.844Z,67.45
2016-05-26T07:30:44.971Z,67.64
2016-05-26T07:31:44.771Z,68.02
2016-05-26T07:32:44.977Z,66.81
2016-05-26T07:33:45.089Z,67
2016-05-26T07:34:45.091Z,67.1
2016-05-26T07:35:45.094Z,66.97
2016-05-26T07:36:45.143Z,67.48
2016-05-26T07:37:45.286Z,66.91
2016-05-26T07:38:45.580Z,66.52
2016-05-26T07:39:45.325Z,66.52
2016-05-26T07:40:45.400Z,67
2016-05-26T07:41:45.505Z,67
2016-05-26T07:42:45.524Z,67.38
2016-05-26T07:43:45.583Z,67.1
2016-05-26T07:44:45.750Z,67.19
2016-05-26T07:45:45.668Z,67.29
2016-05-26T07:46:45.742Z,66.42
2016-05-26T07:47:46.189Z,66.23
2016-05-26T07:48:45.850Z,66.33
2016-05-26T07:49:45.873Z,66.91
2016-05-26T07:50:45.754Z,67.1
2016-05-26T07:51:46.150Z,65.84
2016-05-26T07:52:45.999Z,65.94
2016-05-26T07:53:46.550Z,66.81
2016-05-26T07:54:46.100Z,66.14
2016-05-26T07:55:46.136Z,65.17
2016-05-26T07:56:46.656Z,66.04
2016-05-26T07:57:46.221Z,65.97
2016-05-26T07:58:46.270Z,65.59
2016-05-26T07:59:46.321Z,64.92
2016-05-26T08:00:46.355Z,64.92
2016-05-26T08:01:46.388Z,64.53
2016-05-26T08:02:46.455Z,64.82
2016-05-26T08:03:46.488Z,63.86
2016-05-26T08:04:46.538Z,63.76
2016-05-26T08:05:46.572Z,63.76
2016-05-26T08:06:46.622Z,63.86
2016-05-26T08:07:46.655Z,64.95
2016-05-26T08:08:46.782Z,64.43
2016-05-26T08:09:46.943Z,65.11
2016-05-26T08:10:46.914Z,65.63
2016-05-26T08:11:46.854Z,65.53
2016-05-26T08:12:46.872Z,64.86
2016-05-26T08:13:46.953Z,64.86
2016-05-26T08:14:46.987Z,65.27
2016-05-26T08:15:47.443Z,65.08
2016-05-26T08:16:47.087Z,64.79
2016-05-26T08:17:47.089Z,63.73
2016-05-26T08:18:47.419Z,64.02
2016-05-26T08:19:47.235Z,63.54
2016-05-26T08:20:47.393Z,62
2016-05-26T08:21:47.131Z,61.71
2016-05-26T08:22:47.289Z,61.71
2016-05-26T08:23:47.198Z,61.52
2016-05-26T08:24:47.389Z,61.49
2016-05-26T08:25:47.438Z,61.97
2016-05-26T08:26:47.488Z,61.87
2016-05-26T08:27:47.537Z,61.87
2016-05-26T08:28:47.774Z,60.52
2016-05-26T08:29:47.605Z,61.68
2016-05-26T08:30:47.749Z,61.49
2016-05-26T08:31:47.751Z,61.04
2016-05-26T08:32:47.738Z,59.3
2016-05-26T08:33:47.820Z,59.3
2016-05-26T08:34:47.884Z,58.56
2016-05-26T08:35:48.152Z,58.75
2016-05-26T08:36:47.811Z,58.65
2016-05-26T08:37:47.955Z,58.27
2016-05-26T08:38:48.052Z,57.62
2016-05-26T08:39:48.102Z,58.01
2016-05-26T08:40:48.337Z,57.34
2016-05-26T08:41:48.122Z,57.24
2016-05-26T08:42:48.188Z,56.95
2016-05-26T08:43:48.409Z,57.14
2016-05-26T08:44:48.302Z,56.95
2016-05-26T08:45:48.304Z,57.34
2016-05-26T08:46:48.495Z,57.12
2016-05-26T08:47:48.404Z,57.69
2016-05-26T08:48:48.876Z,58.08
2016-05-26T08:49:48.800Z,58.37
2016-05-26T08:50:48.631Z,58.47
2016-05-26T08:51:48.571Z,58.27
2016-05-26T08:52:48.745Z,58.08
2016-05-26T08:53:48.686Z,57.98
2016-05-26T08:54:48.828Z,58.47
2016-05-26T08:55:48.737Z,57.79
2016-05-26T08:56:48.787Z,57.98
2016-05-26T08:57:48.931Z,57.98
2016-05-26T08:58:48.870Z,57.5
2016-05-26T08:59:48.920Z,57.69
2016-05-26T09:00:48.955Z,58.08
2016-05-26T09:01:49.316Z,58.08
2016-05-26T09:02:49.038Z,57.79
2016-05-26T09:03:48.963Z,57.89
2016-05-26T09:04:49.136Z,57.69
2016-05-26T09:05:49.186Z,57.89
2016-05-26T09:06:49.252Z,58.27
2016-05-26T09:07:49.285Z,58.47
2016-05-26T09:08:49.304Z,58.56
2016-05-26T09:09:49.400Z,58.17
2016-05-26T09:10:48.637Z,58.37
2016-05-26T09:11:49.484Z,58.95
2016-05-26T09:12:49.487Z,59.14
2016-05-26T09:13:49.520Z,59.23
2016-05-26T09:14:49.617Z,59.91
2016-05-26T09:15:49.682Z,58.85
2016-05-26T09:16:49.654Z,58.08
2016-05-26T09:17:49.687Z,57.98
2016-05-26T09:18:49.815Z,57.24
2016-05-26T09:19:50.006Z,57.43
2016-05-26T09:20:49.836Z,57.92
2016-05-26T09:21:49.948Z,58.49
2016-05-26T09:22:49.920Z,58.49
2016-05-26T09:23:49.970Z,58.11
2016-05-26T09:24:50.066Z,57.53
2016-05-26T09:25:50.052Z,57.43
2016-05-26T09:26:50.087Z,57.43
2016-05-26T09:27:50.136Z,58.17
2016-05-26T09:28:50.170Z,57.6
2016-05-26T09:29:50.251Z,57.24
2016-05-26T09:30:50.286Z,57.89
2016-05-26T09:31:50.616Z,57.53
2016-05-26T09:32:50.384Z,57.14
2016-05-26T09:33:50.840Z,57.24
2016-05-26T09:34:50.436Z,57.14
2016-05-26T09:35:50.486Z,57.27
2016-05-26T09:36:50.597Z,57.07
2016-05-26T09:37:50.647Z,57.39
2016-05-26T09:38:51.103Z,56.33
2016-05-26T09:39:50.653Z,56.62
2016-05-26T09:40:50.702Z,55.76
2016-05-26T09:41:50.736Z,55.68
2016-05-26T09:42:50.786Z,55.4
2016-05-26T09:43:50.835Z,52.89
2016-05-26T09:44:50.885Z,52.89
2016-05-26T09:45:51.357Z,53.37
2016-05-26T09:46:50.969Z,52.5
2016-05-26T09:47:51.002Z,51.44
2016-05-26T09:48:51.068Z,51.92
2016-05-26T09:49:50.946Z,52.47
2016-05-26T09:50:51.151Z,51.34
2016-05-26T09:51:51.029Z,50.74
2016-05-26T09:52:51.297Z,50.93
2016-05-26T09:53:51.129Z,51.34
2016-05-26T09:54:51.350Z,52.11
2016-05-26T09:55:51.368Z,51.05
2016-05-26T09:56:51.417Z,51.34
2016-05-26T09:57:51.451Z,50.28
2016-05-26T09:58:51.548Z,49.7
2016-05-26T09:59:51.551Z,49.73
2016-05-26T10:00:51.600Z,48.86
2016-05-26T10:01:51.790Z,48.86
2016-05-26T10:02:51.699Z,48.66
2016-05-26T10:03:51.733Z,49.63
2016-05-26T10:04:51.767Z,49.05
2016-05-26T10:05:51.848Z,50.01
2016-05-26T10:06:51.928Z,49.63
2016-05-26T10:07:52.119Z,49.63
2016-05-26T10:08:51.981Z,49.92
2016-05-26T10:09:52.171Z,50.33
2016-05-26T10:10:52.033Z,49.07
2016-05-26T10:11:52.083Z,49.07
2016-05-26T10:12:52.133Z,48.32
2016-05-26T10:13:52.197Z,47.55
2016-05-26T10:14:52.232Z,47.65
2016-05-26T10:15:52.282Z,47.74
2016-05-26T10:16:52.346Z,47.09
2016-05-26T10:17:52.411Z,47.19
2016-05-26T10:18:52.868Z,47.77
2016-05-26T10:19:52.448Z,48.23
2016-05-26T10:20:52.576Z,48.9
2016-05-26T10:21:52.547Z,49.39
2016-05-26T10:22:52.581Z,48.61
2016-05-26T10:23:52.631Z,49.1
2016-05-26T10:24:52.681Z,49.17
2016-05-26T10:25:52.729Z,49.65
2016-05-26T10:26:52.779Z,49.46
2016-05-26T10:27:52.814Z,49.37
2016-05-26T10:28:52.895Z,48.79
2016-05-26T10:29:52.912Z,48.11
2016-05-26T10:30:52.962Z,48.39
2016-05-26T10:31:53.011Z,48.3
2016-05-26T10:32:53.077Z,48.21
2016-05-26T10:33:53.173Z,48.97
2016-05-26T10:34:53.332Z,48.61
2016-05-26T10:35:53.272Z,48.52
2016-05-26T10:36:53.227Z,48.16
2016-05-26T10:37:53.278Z,47.38
2016-05-26T10:38:53.421Z,48.25
2016-05-26T10:39:53.408Z,49.34
2016-05-26T10:40:53.427Z,48.88
2016-05-26T10:41:53.476Z,48.79
2016-05-26T10:42:53.557Z,49.29
2016-05-26T10:43:53.481Z,48.44
2016-05-26T10:44:53.655Z,47.91
2016-05-26T10:45:53.675Z,47.03
2016-05-26T10:46:53.740Z,45.82
2016-05-26T10:47:53.789Z,44.65
2016-05-26T10:48:53.682Z,43.61
2016-05-26T10:49:53.904Z,42.85
2016-05-26T10:50:54.031Z,42.56
2016-05-26T10:51:54.004Z,41.2
2016-05-26T10:52:54.068Z,41.78
2016-05-26T10:53:54.180Z,41.32
2016-05-26T10:54:54.167Z,41.03
2016-05-26T10:55:54.717Z,40.44
2016-05-26T10:56:54.266Z,39.29
2016-05-26T10:57:54.315Z,38.44
2016-05-26T10:58:54.381Z,36.61
2016-05-26T10:59:54.275Z,33.43
2016-05-26T11:00:54.683Z,33.26
2016-05-26T11:01:54.530Z,32.53
2016-05-26T11:02:54.595Z,31.21
2016-05-26T11:03:54.644Z,29.98
2016-05-26T11:04:54.725Z,27.87
2016-05-26T11:05:54.900Z,27.01
2016-05-26T11:06:54.809Z,24.79
2016-05-26T11:07:54.889Z,22.55
2016-05-26T11:08:54.767Z,22.95
2016-05-26T11:09:54.973Z,22.08
2016-05-26T11:10:55.054Z,20.01
2016-05-26T11:11:55.088Z,19.64
2016-05-26T11:12:55.169Z,19.85
2016-05-26T11:13:55.218Z,19.66
2016-05-26T11:14:55.799Z,20.35
2016-05-26T11:15:55.332Z,19.65
2016-05-26T11:16:55.382Z,20.41
2016-05-26T11:17:55.323Z,20.68
2016-05-26T11:18:55.826Z,21.25
2016-05-26T11:19:55.547Z,21.9
2016-05-26T11:20:55.893Z,22.39
2016-05-26T11:21:56.380Z,22.31
2016-05-26T11:22:55.571Z,22.42
2016-05-26T11:23:55.776Z,21.73
2016-05-26T11:24:55.842Z,22.03
2016-05-26T11:25:56.220Z,21.06
2016-05-26T11:26:56.097Z,21.46
2016-05-26T11:27:56.053Z,21.26
2016-05-26T11:28:56.070Z,21.84
2016-05-26T11:29:56.356Z,22.12
2016-05-26T11:30:56.154Z,22.49
2016-05-26T11:31:56.251Z,22.95
2016-05-26T11:32:56.284Z,23.81
2016-05-26T11:33:57.100Z,24.96
2016-05-26T11:34:56.400Z,25.54
2016-05-26T11:35:56.340Z,25.82
2016-05-26T11:36:56.592Z,26.01
2016-05-26T11:37:56.392Z,25.45
2016-05-26T11:38:56.630Z,23.03
2016-05-26T11:39:56.663Z,21.4
2016-05-26T11:40:56.713Z,21.83
2016-05-26T11:41:56.763Z,21.84
2016-05-26T11:42:56.828Z,20.96
2016-05-26T11:43:56.877Z,21.65
2016-05-26T11:44:56.942Z,20.86
2016-05-26T11:45:57.038Z,20.57
2016-05-26T11:46:57.057Z,20.49
2016-05-26T11:47:57.029Z,19.62
2016-05-26T11:48:57.453Z,18.65
2016-05-26T11:49:57.315Z,17.38
2016-05-26T11:50:57.287Z,17.3
2016-05-26T11:51:57.352Z,17.4
2016-05-26T11:52:57.449Z,16.72
2016-05-26T11:53:57.638Z,16.92
2016-05-26T11:54:58.126Z,16.42
2016-05-26T11:55:57.612Z,16.71
2016-05-26T11:56:57.694Z,17.08
2016-05-26T11:57:57.540Z,17.55
2016-05-26T11:58:57.776Z,18.23
2016-05-26T11:59:57.874Z,19.11
2016-05-26T12:00:57.720Z,19.02
2016-05-26T12:01:57.941Z,18.83
2016-05-26T12:02:58.053Z,18.05
2016-05-26T12:03:59.275Z,18.07
2016-05-26T12:04:58.106Z,17.29
2016-05-26T12:05:58.170Z,16.8
2016-05-26T12:06:58.251Z,16.02
2016-05-26T12:07:58.270Z,15.83
2016-05-26T12:08:58.350Z,16.03
2016-05-26T12:09:58.448Z,14.64
2016-05-26T12:10:58.466Z,14.73
2016-05-26T12:11:58.514Z,15.3
2016-05-26T12:12:58.580Z,16.17
2016-05-26T12:13:58.630Z,17.33
2016-05-26T12:14:58.695Z,17.22
2016-05-26T12:15:58.760Z,18.1
2016-05-26T12:16:58.653Z,18.58
2016-05-26T12:17:58.874Z,18.77
2016-05-26T12:18:59.471Z,19.46
2016-05-26T12:19:59.005Z,19.75
2016-05-26T12:20:59.039Z,19.56
2016-05-26T12:21:59.088Z,18.98
2016-05-26T12:22:59.169Z,19.07
2016-05-26T12:23:59.234Z,17.21
2016-05-26T12:24:59.254Z,16.83
2016-05-26T12:25:59.318Z,17.22
2016-05-26T12:26:59.211Z,17.22
2016-05-26T12:27:59.433Z,16.83
2016-05-26T12:28:59.514Z,16.53
2016-05-26T12:29:59.392Z,16.83
2016-05-26T12:30:59.598Z,16.64
2016-05-26T12:31:59.662Z,15.88
2016-05-26T12:32:59.743Z,14.31
2016-05-26T12:34:00.340Z,13.23
2016-05-26T12:34:59.890Z,13.24
2016-05-26T12:35:59.736Z,13.53
2016-05-26T12:36:59.972Z,13.93
2016-05-26T12:37:59.867Z,14.73
2016-05-26T12:39:00.088Z,13.94
2016-05-26T12:40:00.122Z,13.95
2016-05-26T12:41:00.187Z,13.95
2016-05-26T12:42:00.299Z,14.06
2016-05-26T12:43:00.364Z,12.57
2016-05-26T12:44:00.382Z,13.17
2016-05-26T12:45:00.511Z,11.89
2016-05-26T12:46:00.497Z,11.78
2016-05-26T12:47:00.547Z,11.68
2016-05-26T12:48:00.455Z,12.48
2016-05-26T12:49:00.880Z,12.18
2016-05-26T12:50:00.742Z,12.68
2016-05-26T12:51:01.432Z,12.77
2016-05-26T12:52:00.841Z,12.96
2016-05-26T12:53:00.907Z,13.56
2016-05-26T12:54:00.988Z,13.95
2016-05-26T12:55:00.865Z,14.06
2016-05-26T12:56:01.087Z,14.45
2016-05-26T12:57:01.933Z,13.95